Terminal Aerodrome Forecast
Issued by NWS

Home | Current Version | Previous Version | Text Only | Print | Product List | Glossary On
Versions: 1 2 3 4 5 6 7 8 9 10 11 12 13
000
FTUS43 KICT 290526
TAFCNU
TAF
KCNU 290526Z 2906/3006 12004KT P6SM SKC
     FM291000 05005KT P6SM FEW120
     FM291700 07010KT P6SM FEW120
     FM292200 06012KT P6SM BKN060=

USA.gov is the U.S. government's official web portal to all federal, state and local government web resources and services.